Hasselt, Belgium
Current Conditions -  °F | °C
As of 8:25 AM on Wednesday 22 Oct 2014 (Local Time) from EBDT Reporting Station
Broken Clouds Broken Clouds  
Wind Chill: 39°   Ceiling: 4500
Heat Index: 45°   Visibility: 6mi
Dew Point: 41°   Wind: 10mph
Humidity: 87%   Direction: 280°W
Pressure: 30.06"   Gusts: NA
Location:  50.93°N, 5.34°E
Report Text: EBDT 220625Z 28009KT 9000 FEW029 BKN045 07/05 Q1018 BLU BLU TEMPO GRN
Loading
Personal Weather Stations






























Interactive Weather Map
Tropical Storm Tracking
New forecast layout! Learn more

10-Day Weather Forecast

Advertisements
Track Severe Weather on mobile